Terminal Aerodrome Forecast
Issued by NWS

Home | Current Version | Previous Version | Graphics & Text | Print | Product List | Glossary On
Versions: 1 2 3 4 5 6 7 8 9 10 11 12 13
000
FTUS42 KMHX 241700 RRA
TAFISO
TAF
KISO 241741Z 2418/2518 28010G19KT P6SM VCSH OVC015
     FM242100 29006KT P6SM SCT035
     FM242300 26005KT P6SM SKC
      AMD LTD TO CLD VIS AND WIND=

USA.gov is the U.S. government's official web portal to all federal, state and local government web resources and services.